Time;durP1;ratioP1;P1;durP2;ratioP2;P2;SDS_P1;SDS_P2;PMS_P1;PMS_P2;Temp;Humidity;BMP_temperature;BMP_pressure;BME280_temperature;BME280_humidity;BME280_pressure;Samples;Min_cycle;Max_cycle;Signal;HPM_P1;HPM_P2
2021/03/22 00:00:33;;;;;;;;;;;;;;;2.54;54.12;100005.20;125371;1099;103951;-78
2021/03/22 00:03:12;;;;;;;;;;;;;;;2.57;54.84;99992.43;126246;1099;104086;-78
2021/03/22 00:05:42;;;;;;;;;;;;;;;2.58;54.22;99999.38;126292;1099;103935;-78
2021/03/22 00:08:11;;;;;;;;;;;;;;;2.61;54.79;99994.37;126284;1099;104075;-78
2021/03/22 00:10:42;;;;;;;;;;;;;;;2.65;54.27;99985.08;126323;1099;104398;-79
2021/03/22 00:13:11;;;;;;;;;;;;;;;2.66;54.63;99979.11;126207;1099;103938;-78
2021/03/22 00:15:41;;;;;;;;;;;;;;;2.69;54.66;99982.76;126280;1099;105058;-78
2021/03/22 00:18:13;;;;;;;;;;;;;;;2.70;55.16;99970.72;126289;1099;103922;-78
2021/03/22 00:20:42;;;;;;;;;;;;;;;2.72;54.98;99969.10;126317;1099;103945;-78
2021/03/22 00:23:11;;;;;;;;;;;;;;;2.72;54.92;99974.28;126239;1099;104168;-78
2021/03/22 00:25:40;;;;;;;;;;;;;;;2.70;54.84;99970.72;126306;1099;104002;-78
2021/03/22 00:28:09;;;;;;;;;;;;;;;2.68;55.41;99968.04;126266;1099;104351;-78
2021/03/22 00:30:39;;;;;;;;;;;;;;;2.68;54.99;99956.77;126277;1099;103944;-78
2021/03/22 00:33:09;;;;;;;;;;;;;;;2.69;54.80;99961.16;126143;1099;102760;-78
2021/03/22 00:35:38;;;;;;;;;;;;;;;2.70;55.33;99955.17;126297;1099;103925;-78
2021/03/22 00:38:07;;;;;;;;;;;;;;;2.69;55.29;99948.20;126314;1099;104070;-78
2021/03/22 00:40:38;;;;;;;;;;;;;;;2.67;55.53;99944.63;126283;1099;105084;-78
2021/03/22 00:43:06;;;;;;;;;;;;;;;2.65;55.89;99946.22;126265;1099;103910;-78
2021/03/22 00:45:35;;;;;;;;;;;;;;;2.64;55.80;99939.27;126307;1099;104014;-78
2021/03/22 00:48:05;;;;;;;;;;;;;;;2.63;55.33;99940.06;125432;1099;104057;-78
2021/03/22 00:50:35;;;;;;;;;;;;;;;2.62;55.35;99943.48;126318;1099;104044;-78
2021/03/22 00:53:04;;;;;;;;;;;;;;;2.58;55.37;99937.20;126163;1099;104108;-78
2021/03/22 00:55:33;;;;;;;;;;;;;;;2.57;55.96;99942.30;126342;1099;103915;-79
2021/03/22 00:58:03;;;;;;;;;;;;;;;2.58;55.90;99931.14;125365;1099;104014;-78
2021/03/22 01:00:33;;;;;;;;;;;;;;;2.56;55.87;99919.81;126325;1099;103945;-78
2021/03/22 01:03:03;;;;;;;;;;;;;;;2.51;55.67;99925.61;126146;1099;103929;-78
2021/03/22 01:05:33;;;;;;;;;;;;;;;2.53;56.01;99924.81;126300;1098;103932;-78
2021/03/22 01:08:02;;;;;;;;;;;;;;;2.53;56.23;99925.70;126314;1099;104047;-78
2021/03/22 01:10:34;;;;;;;;;;;;;;;2.56;56.35;99919.81;125350;1099;103928;-79
2021/03/22 01:13:03;;;;;;;;;;;;;;;2.58;55.89;99924.25;125291;1099;104778;-78
2021/03/22 01:15:32;;;;;;;;;;;;;;;2.60;56.24;99921.75;126258;1099;103919;-77
2021/03/22 01:18:01;;;;;;;;;;;;;;;2.62;56.25;99921.05;126215;1099;104420;-78
2021/03/22 01:20:34;;;;;;;;;;;;;;;2.66;56.23;99916.93;126332;1099;103964;-78
2021/03/22 01:23:03;;;;;;;;;;;;;;;2.67;56.47;99914.43;126207;1099;103919;-79
2021/03/22 01:25:32;;;;;;;;;;;;;;;2.69;56.22;99915.40;126327;1099;103983;-78
2021/03/22 01:28:01;;;;;;;;;;;;;;;2.73;55.76;99920.76;126290;1099;104402;-80
2021/03/22 01:30:37;;;;;;;;;;;;;;;2.73;56.07;99913.91;126284;1099;103931;-78
2021/03/22 01:33:10;;;;;;;;;;;;;;;2.74;55.84;99907.89;126178;1099;104082;-79
2021/03/22 01:35:39;;;;;;;;;;;;;;;2.76;56.78;99893.34;126312;1099;103915;-78
2021/03/22 01:38:08;;;;;;;;;;;;;;;2.76;56.52;99895.03;126292;1099;104018;-78
2021/03/22 01:40:47;;;;;;;;;;;;;;;2.76;55.97;99888.17;126358;1099;104407;-78
2021/03/22 01:43:23;;;;;;;;;;;;;;;2.77;56.36;99879.57;126172;1099;104066;-78
2021/03/22 01:45:52;;;;;;;;;;;;;;;2.77;56.52;99874.38;126341;1099;103961;-78
2021/03/22 01:48:20;;;;;;;;;;;;;;;2.75;56.58;99865.64;126293;1099;103934;-79
2021/03/22 01:50:49;;;;;;;;;;;;;;;2.74;56.77;99874.21;125397;1099;103941;-79
2021/03/22 01:53:18;;;;;;;;;;;;;;;2.74;57.06;99871.62;125278;1099;104054;-79
2021/03/22 01:55:47;;;;;;;;;;;;;;;2.75;56.91;99870.83;126282;1099;104076;-78
2021/03/22 01:58:16;;;;;;;;;;;;;;;2.70;57.22;99861.91;126271;1099;103918;-79
2021/03/22 02:00:44;;;;;;;;;;;;;;;2.71;57.27;99868.85;125383;1099;103929;-79
2021/03/22 02:03:15;;;;;;;;;;;;;;;2.73;57.21;99863.77;126268;1099;103919;-78
2021/03/22 02:05:46;;;;;;;;;;;;;;;2.73;57.53;99861.17;126285;1099;104021;-77
2021/03/22 02:08:18;;;;;;;;;;;;;;;2.73;57.00;99862.08;126291;1099;103925;-78
2021/03/22 02:10:47;;;;;;;;;;;;;;;2.76;57.25;99870.03;125386;1099;104065;-78
2021/03/22 02:13:18;;;;;;;;;;;;;;;2.77;57.26;99853.66;126367;1099;103922;-79
2021/03/22 02:15:49;;;;;;;;;;;;;;;2.76;57.22;99858.75;126266;1099;101637;-78
2021/03/22 02:18:22;;;;;;;;;;;;;;;2.78;57.54;99860.64;126346;1099;103929;-78
2021/03/22 02:21:00;;;;;;;;;;;;;;;2.77;57.63;99856.25;126278;1099;103915;-78
2021/03/22 02:23:48;;;;;;;;;;;;;;;2.76;56.96;99848.39;126279;1099;104139;-77
2021/03/22 02:26:32;;;;;;;;;;;;;;;2.78;57.42;99844.20;126215;1099;112201;-78
2021/03/22 02:29:10;;;;;;;;;;;;;;;2.80;57.38;99843.47;126305;1099;103925;-78
2021/03/22 02:31:53;;;;;;;;;;;;;;;2.86;57.60;99840.34;126296;1099;103915;-78
2021/03/22 02:34:36;;;;;;;;;;;;;;;2.92;57.07;99834.62;126170;1099;103916;-79
2021/03/22 02:37:12;;;;;;;;;;;;;;;2.97;57.25;99843.53;126257;1099;104018;-79
2021/03/22 02:39:47;;;;;;;;;;;;;;;3.00;57.28;99841.98;126284;1099;103923;-78
2021/03/22 02:42:16;;;;;;;;;;;;;;;3.04;57.17;99837.89;125417;1099;103990;-78
2021/03/22 02:44:45;;;;;;;;;;;;;;;3.04;57.97;99841.36;126223;1099;103965;-78
2021/03/22 02:47:22;;;;;;;;;;;;;;;3.04;57.28;99836.17;126302;1099;103929;-79
2021/03/22 02:49:53;;;;;;;;;;;;;;;3.07;57.93;99838.05;126311;1099;103932;-79
2021/03/22 02:52:33;;;;;;;;;;;;;;;3.10;57.82;99835.63;126286;1099;103986;-79
2021/03/22 02:55:05;;;;;;;;;;;;;;;3.12;57.75;99835.72;125320;1099;104387;-78
2021/03/22 02:57:39;;;;;;;;;;;;;;;3.12;57.68;99833.13;125381;1099;103925;-78
2021/03/22 03:00:10;;;;;;;;;;;;;;;3.08;57.60;99839.81;126263;1098;103944;-78
2021/03/22 03:02:40;;;;;;;;;;;;;;;3.08;57.50;99833.75;126307;1098;103922;-78
2021/03/22 03:05:14;;;;;;;;;;;;;;;3.08;58.27;99828.57;125274;1099;103916;-78
2021/03/22 03:07:42;;;;;;;;;;;;;;;3.13;57.97;99832.30;126337;1099;103944;-78
2021/03/22 03:10:13;;;;;;;;;;;;;;;3.15;57.67;99830.70;125338;1099;103921;-78
2021/03/22 03:12:42;;;;;;;;;;;;;;;3.18;57.53;99834.34;126307;1099;103980;-78
2021/03/22 03:15:13;;;;;;;;;;;;;;;3.19;58.11;99838.70;126181;1099;104018;-79
2021/03/22 03:17:42;;;;;;;;;;;;;;;3.18;58.08;99841.20;126305;1099;104401;-79
2021/03/22 03:20:14;;;;;;;;;;;;;;;3.15;57.92;99847.13;125451;1099;103925;-78
2021/03/22 03:22:42;;;;;;;;;;;;;;;3.17;58.58;99842.91;126280;1098;103913;-78
2021/03/22 03:25:12;;;;;;;;;;;;;;;3.19;57.76;99846.47;126223;1099;104145;-80
2021/03/22 03:27:41;;;;;;;;;;;;;;;3.15;57.83;99841.95;125366;1099;104054;-78
2021/03/22 03:30:12;;;;;;;;;;;;;;;3.08;57.91;99838.94;126320;1099;103942;-79
2021/03/22 03:32:41;;;;;;;;;;;;;;;3.01;58.02;99842.91;126307;1099;103944;-79
2021/03/22 03:35:12;;;;;;;;;;;;;;;2.94;58.49;99833.87;126340;1099;103945;-79
2021/03/22 03:37:41;;;;;;;;;;;;;;;2.91;58.20;99830.23;126215;1098;104742;-77
2021/03/22 03:40:12;;;;;;;;;;;;;;;2.94;58.23;99841.64;126289;1099;104044;-78
2021/03/22 03:42:41;;;;;;;;;;;;;;;2.96;58.32;99833.95;126315;1099;104041;-78
2021/03/22 03:45:15;;;;;;;;;;;;;;;2.98;58.16;99832.36;126283;1097;103919;-78
2021/03/22 03:47:44;;;;;;;;;;;;;;;2.99;58.86;99827.27;126274;1099;103925;-79
2021/03/22 03:50:16;;;;;;;;;;;;;;;2.97;58.81;99831.45;126234;1098;103938;-79
2021/03/22 03:52:45;;;;;;;;;;;;;;;2.95;58.33;99829.60;126319;1099;103964;-78
2021/03/22 03:55:14;;;;;;;;;;;;;;;2.92;58.36;99835.50;126295;1099;103929;-78
2021/03/22 03:57:46;;;;;;;;;;;;;;;2.91;58.22;99832.82;126248;1099;103929;-78
2021/03/22 04:00:16;;;;;;;;;;;;;;;2.88;58.55;99825.75;126265;1098;103922;-78
2021/03/22 04:02:45;;;;;;;;;;;;;;;2.93;58.17;99828.60;126210;1099;104111;-78
2021/03/22 04:08:17;;;;;;;;;;;;;;;3.01;58.59;99823.05;125333;1099;103947;-78
2021/03/22 04:10:47;;;;;;;;;;;;;;;3.08;58.70;99813.89;126193;1099;103990;-78
2021/03/22 04:13:16;;;;;;;;;;;;;;;3.16;58.73;99822.09;126294;1099;103919;-78
2021/03/22 04:15:45;;;;;;;;;;;;;;;3.20;58.51;99822.34;125366;1099;103906;-78
2021/03/22 04:18:14;;;;;;;;;;;;;;;3.26;58.83;99816.61;126202;1099;103916;-78
2021/03/22 04:20:42;;;;;;;;;;;;;;;3.29;58.55;99827.14;126278;1099;103916;-78
2021/03/22 04:23:11;;;;;;;;;;;;;;;3.35;59.03;99824.88;126293;1099;104018;-78
2021/03/22 04:25:40;;;;;;;;;;;;;;;3.37;58.53;99824.97;126302;1099;104050;-78
2021/03/22 04:28:09;;;;;;;;;;;;;;;3.33;58.29;99820.41;126184;1098;103989;-79
2021/03/22 04:30:38;;;;;;;;;;;;;;;3.33;59.12;99816.11;126288;1099;103916;-78
2021/03/22 04:33:07;;;;;;;;;;;;;;;3.33;58.75;99816.11;126292;1099;103938;-79
2021/03/22 04:35:36;;;;;;;;;;;;;;;3.35;59.01;99822.29;126297;1099;104044;-78
2021/03/22 04:38:04;;;;;;;;;;;;;;;3.40;59.10;99813.04;126273;1099;104181;-78
2021/03/22 04:40:33;;;;;;;;;;;;;;;3.40;58.94;99818.23;126238;1099;103954;-78
2021/03/22 04:43:02;;;;;;;;;;;;;;;3.39;59.02;99815.55;126213;1097;104145;-79
2021/03/22 04:45:31;;;;;;;;;;;;;;;3.42;58.85;99810.53;126273;1099;104417;-79
2021/03/22 04:48:00;;;;;;;;;;;;;;;3.40;58.91;99812.16;126270;1099;105284;-79
2021/03/22 04:50:29;;;;;;;;;;;;;;;3.40;58.98;99812.16;126269;1098;104003;-79
2021/03/22 04:52:58;;;;;;;;;;;;;;;3.38;58.67;99817.27;126243;1099;104407;-79
2021/03/22 04:55:26;;;;;;;;;;;;;;;3.44;59.40;99818.39;126334;1099;103977;-79
2021/03/22 04:57:55;;;;;;;;;;;;;;;3.45;59.14;99817.59;126237;1099;104041;-79
2021/03/22 05:00:26;;;;;;;;;;;;;;;3.50;59.22;99814.41;126289;1099;104051;-79
2021/03/22 05:02:55;;;;;;;;;;;;;;;3.50;58.44;99813.53;126300;1099;103983;-80
2021/03/22 05:05:24;;;;;;;;;;;;;;;3.48;58.43;99810.86;126229;1099;103983;-80
2021/03/22 05:07:53;;;;;;;;;;;;;;;3.52;59.13;99804.11;126231;1099;103938;-80
2021/03/22 05:10:24;;;;;;;;;;;;;;;3.60;58.84;99810.63;126254;1099;103963;-80
2021/03/22 05:12:53;;;;;;;;;;;;;;;3.65;58.83;99803.96;126380;1099;103925;-79
2021/03/22 05:15:22;;;;;;;;;;;;;;;3.70;59.02;99805.08;126269;1099;104098;-79
2021/03/22 05:17:51;;;;;;;;;;;;;;;3.74;58.75;99812.22;126188;1099;104044;-79
2021/03/22 05:20:22;;;;;;;;;;;;;;;3.77;58.50;99799.41;126229;1098;103963;-79
2021/03/22 05:22:50;;;;;;;;;;;;;;;3.73;58.33;99804.36;126157;1099;103926;-79
2021/03/22 05:25:19;;;;;;;;;;;;;;;3.79;59.16;99804.67;126337;1099;103919;-79
2021/03/22 05:27:48;;;;;;;;;;;;;;;3.82;58.98;99798.73;126185;1099;103965;-79
2021/03/22 05:30:18;;;;;;;;;;;;;;;3.83;58.26;99803.12;126137;1099;103954;-79
2021/03/22 05:32:48;;;;;;;;;;;;;;;3.91;59.32;99806.98;125362;1099;103980;-79
2021/03/22 05:35:18;;;;;;;;;;;;;;;3.97;59.14;99802.11;126186;1099;104089;-79
2021/03/22 05:37:47;;;;;;;;;;;;;;;4.03;58.74;99797.23;126252;1099;104056;-80
2021/03/22 05:40:20;;;;;;;;;;;;;;;4.08;58.96;99805.25;126185;1099;104047;-79
2021/03/22 05:42:54;;;;;;;;;;;;;;;4.16;58.50;99798.77;126084;1099;104140;-77
2021/03/22 05:45:33;;;;;;;;;;;;;;;4.24;59.15;99794.83;126013;1099;103939;-79
2021/03/22 05:48:06;;;;;;;;;;;;;;;4.28;58.36;99798.46;125129;1099;105370;-77
2021/03/22 05:50:41;;;;;;;;;;;;;;;4.27;58.64;99797.58;126104;1099;105783;-78
2021/03/22 05:53:21;;;;;;;;;;;;;;;4.37;58.97;99790.25;126127;1099;103935;-78
2021/03/22 05:55:52;;;;;;;;;;;;;;;4.56;58.76;99790.30;126140;1099;103954;-78
2021/03/22 05:58:31;;;;;;;;;;;;;;;4.67;58.61;99794.33;125319;1099;104038;-79
2021/03/22 06:01:03;;;;;;;;;;;;;;;4.70;58.75;99788.37;125332;1099;110935;-78
2021/03/22 06:03:36;;;;;;;;;;;;;;;4.70;58.83;99798.77;126159;1099;103934;-78
2021/03/22 06:06:12;;;;;;;;;;;;;;;4.78;58.61;99783.53;126124;1098;104088;-79
2021/03/22 06:08:49;;;;;;;;;;;;;;;4.88;58.66;99784.85;126101;1099;103963;-78
2021/03/22 06:11:22;;;;;;;;;;;;;;;5.02;58.65;99781.21;126189;1099;103992;-79
2021/03/22 06:13:56;;;;;;;;;;;;;;;5.06;58.76;99779.63;126149;1099;104027;-78
2021/03/22 06:16:28;;;;;;;;;;;;;;;5.11;58.64;99781.63;126137;1099;103948;-79
2021/03/22 06:18:59;;;;;;;;;;;;;;;5.16;58.38;99782.73;125300;1099;103964;-79
2021/03/22 06:21:29;;;;;;;;;;;;;;;5.26;58.93;99776.22;126097;1099;104509;-79
2021/03/22 06:23:59;;;;;;;;;;;;;;;5.32;58.71;99778.22;126014;1099;103958;-77
2021/03/22 06:26:35;;;;;;;;;;;;;;;5.31;58.83;99785.11;125893;1099;104464;-78
2021/03/22 06:29:06;;;;;;;;;;;;;;;5.26;58.09;99784.02;125961;1099;104047;-77
2021/03/22 06:31:35;;;;;;;;;;;;;;;5.28;58.44;99781.49;125137;1099;118875;-77
2021/03/22 06:34:06;;;;;;;;;;;;;;;5.32;58.72;99781.70;125768;1099;103958;-77
2021/03/22 06:36:36;;;;;;;;;;;;;;;5.42;58.81;99777.80;125220;1099;103986;-78
2021/03/22 06:39:06;;;;;;;;;;;;;;;5.48;58.65;99778.06;126146;1099;104088;-78
2021/03/22 06:41:37;;;;;;;;;;;;;;;5.49;58.55;99785.06;126043;1099;103932;-78
2021/03/22 06:44:08;;;;;;;;;;;;;;;5.48;58.75;99779.80;125234;1099;104895;-78
2021/03/22 06:46:53;;;;;;;;;;;;;;;5.44;58.62;99786.58;125112;1099;104114;-79
2021/03/22 06:49:24;;;;;;;;;;;;;;;5.47;58.47;99786.72;125876;1099;104047;-78
2021/03/22 06:52:01;;;;;;;;;;;;;;;5.47;58.19;99791.02;125702;1099;103951;-79
2021/03/22 06:54:36;;;;;;;;;;;;;;;5.46;58.15;99795.33;125320;1099;104105;-79
2021/03/22 06:57:07;;;;;;;;;;;;;;;5.57;58.28;99794.09;125920;1099;104041;-78
2021/03/22 06:59:36;;;;;;;;;;;;;;;5.71;58.54;99786.89;125970;1099;104089;-78
2021/03/22 07:02:19;;;;;;;;;;;;;;;5.80;58.09;99794.22;125169;1099;103948;-79
2021/03/22 07:04:49;;;;;;;;;;;;;;;5.75;58.06;99794.02;125850;1099;104419;-79
2021/03/22 07:07:20;;;;;;;;;;;;;;;5.68;58.33;99791.96;126049;1099;103926;-79
2021/03/22 07:09:53;;;;;;;;;;;;;;;5.68;58.16;99789.36;125858;1099;104205;-78
2021/03/22 07:12:29;;;;;;;;;;;;;;;5.71;57.87;99797.30;126067;1099;104057;-80
2021/03/22 07:15:11;;;;;;;;;;;;;;;5.81;58.10;99792.50;125224;1099;104098;-81
2021/03/22 07:17:42;;;;;;;;;;;;;;;5.96;58.40;99792.28;125147;1099;103944;-77
2021/03/22 07:20:13;;;;;;;;;;;;;;;6.10;57.95;99793.78;125098;1102;104134;-77
2021/03/22 07:22:43;;;;;;;;;;;;;;;6.16;57.86;99788.84;125142;1102;104124;-76
2021/03/22 07:25:30;;;;;;;;;;;;;;;6.22;58.01;99788.22;125103;1099;104018;-78
2021/03/22 07:28:02;;;;;;;;;;;;;;;6.39;58.13;99786.27;125206;1102;104086;-77
2021/03/22 07:30:39;;;;;;;;;;;;;;;6.62;58.32;99793.34;125219;1102;103938;-79
2021/03/22 07:33:21;;;;;;;;;;;;;;;6.82;58.20;99791.52;125171;1099;108394;-79
2021/03/22 07:36:06;;;;;;;;;;;;;;;7.09;58.15;99793.42;125073;1099;103976;-80
2021/03/22 07:38:49;;;;;;;;;;;;;;;7.41;58.30;99790.23;125022;1102;104016;-79
2021/03/22 07:41:25;;;;;;;;;;;;;;;7.65;57.67;99793.75;124989;1102;103941;-79
2021/03/22 07:44:06;;;;;;;;;;;;;;;7.78;57.58;99788.97;125020;1099;104070;-78
2021/03/22 07:46:44;;;;;;;;;;;;;;;7.81;57.53;99783.84;125598;1099;103958;-78
2021/03/22 07:49:26;;;;;;;;;;;;;;;7.88;57.89;99775.38;125835;1099;103914;-78
2021/03/22 07:52:02;;;;;;;;;;;;;;;8.02;57.47;99770.63;125165;1099;104097;-78
2021/03/22 07:54:44;;;;;;;;;;;;;;;8.08;57.41;99770.83;125805;1099;103973;-79
2021/03/22 07:57:19;;;;;;;;;;;;;;;7.99;57.05;99767.91;125040;1099;104018;-78
2021/03/22 07:59:52;;;;;;;;;;;;;;;7.90;57.11;99776.34;125828;1099;102744;-78
2021/03/22 08:02:31;;;;;;;;;;;;;;;7.89;56.85;99771.94;125756;1098;103931;-77
2021/03/22 08:05:07;;;;;;;;;;;;;;;7.96;57.38;99768.67;125958;1099;104080;-79
2021/03/22 08:07:50;;;;;;;;;;;;;;;8.07;57.28;99771.66;125861;1099;103954;-77
2021/03/22 08:10:26;;;;;;;;;;;;;;;8.07;56.94;99769.05;125931;1099;104072;-78
2021/03/22 08:13:00;;;;;;;;;;;;;;;7.99;56.86;99770.52;125955;1099;103947;-78
2021/03/22 08:15:34;;;;;;;;;;;;;;;8.00;56.77;99770.57;125995;1099;103913;-77
2021/03/22 08:18:10;;;;;;;;;;;;;;;8.09;56.49;99770.02;125923;1099;103925;-77
2021/03/22 08:20:48;;;;;;;;;;;;;;;8.10;57.09;99771.77;126069;1098;103922;-77
2021/03/22 08:23:20;;;;;;;;;;;;;;;8.16;56.37;99760.64;125178;1099;104038;-78
2021/03/22 08:25:51;;;;;;;;;;;;;;;8.16;56.80;99766.75;125276;1099;103941;-77
2021/03/22 08:28:25;;;;;;;;;;;;;;;8.18;56.90;99767.70;125095;1099;104150;-78
2021/03/22 08:31:05;;;;;;;;;;;;;;;8.25;56.61;99761.83;125940;1099;104420;-78
2021/03/22 08:33:38;;;;;;;;;;;;;;;8.31;56.72;99760.28;125239;1099;104003;-77
2021/03/22 08:36:18;;;;;;;;;;;;;;;8.42;56.50;99756.28;125934;1099;104079;-78
2021/03/22 08:38:49;;;;;;;;;;;;;;;8.56;56.64;99754.14;125929;1098;103948;-78
2021/03/22 08:41:26;;;;;;;;;;;;;;;8.62;56.63;99752.59;125168;1099;103986;-77
2021/03/22 08:43:57;;;;;;;;;;;;;;;8.71;57.16;99746.78;125972;1099;103964;-77
2021/03/22 08:46:32;;;;;;;;;;;;;;;8.84;56.73;99741.92;126187;1099;103984;-78
2021/03/22 08:49:01;;;;;;;;;;;;;;;8.88;56.77;99744.69;126229;1099;103920;-78
2021/03/22 08:51:32;;;;;;;;;;;;;;;8.88;56.65;99744.69;125998;1099;103925;-77
2021/03/22 08:54:01;;;;;;;;;;;;;;;8.88;56.00;99739.45;125855;1099;103945;-77
2021/03/22 08:56:36;;;;;;;;;;;;;;;8.83;56.38;99740.14;125925;1099;103919;-78
2021/03/22 08:59:09;;;;;;;;;;;;;;;8.83;56.17;99745.38;125996;1099;104021;-80
2021/03/22 09:01:42;;;;;;;;;;;;;;;8.89;56.88;99741.20;126028;1099;104047;-77
2021/03/22 09:04:30;;;;;;;;;;;;;;;8.93;56.34;99731.74;125961;1099;104025;-77
2021/03/22 09:07:01;;;;;;;;;;;;;;;8.93;56.73;99737.85;125266;1100;104507;-78
2021/03/22 09:09:35;;;;;;;;;;;;;;;8.97;56.07;99737.08;125347;1099;103918;-78
2021/03/22 09:12:09;;;;;;;;;;;;;;;9.06;56.09;99726.02;125330;1099;104086;-78
2021/03/22 09:14:42;;;;;;;;;;;;;;;9.02;55.63;99728.48;126020;1099;103957;-78
2021/03/22 09:17:22;;;;;;;;;;;;;;;9.12;56.60;99725.31;125118;1099;103909;-78
2021/03/22 09:20:09;;;;;;;;;;;;;;;9.29;56.57;99720.56;125943;1099;103947;-77
2021/03/22 09:22:51;;;;;;;;;;;;;;;9.36;56.40;99725.11;125963;1099;104022;-76
2021/03/22 09:25:31;;;;;;;;;;;;;;;9.33;56.10;99725.94;125943;1099;103926;-76
2021/03/22 09:28:12;;;;;;;;;;;;;;;9.39;56.26;99724.32;125143;1099;104076;-76
2021/03/22 09:30:53;;;;;;;;;;;;;;;9.47;55.73;99718.47;125207;1099;103923;-78
2021/03/22 09:33:31;;;;;;;;;;;;;;;9.34;55.26;99725.06;125051;1102;104128;-77
2021/03/22 09:36:06;;;;;;;;;;;;;;;9.21;55.29;99722.96;125008;1099;104248;-78
2021/03/22 09:38:42;;;;;;;;;;;;;;;9.13;55.40;99727.06;125082;1099;104101;-77
2021/03/22 09:41:14;;;;;;;;;;;;;;;9.12;55.25;99727.94;125203;1102;104115;-78
2021/03/22 09:44:09;;;;;;;;;;;;;;;9.27;55.53;99728.38;125201;1099;104008;-77
2021/03/22 09:46:40;;;;;;;;;;;;;;;9.27;54.75;99722.23;125209;1099;103951;-76
2021/03/22 09:49:11;;;;;;;;;;;;;;;9.19;55.64;99719.39;125104;1102;104078;-77
2021/03/22 09:51:46;;;;;;;;;;;;;;;9.27;55.18;99717.91;125063;1102;103935;-78
2021/03/22 09:54:28;;;;;;;;;;;;;;;9.24;54.63;99722.14;124992;1099;103993;-77
2021/03/22 09:57:12;;;;;;;;;;;;;;;9.22;55.50;99719.48;125048;1100;104044;-77
2021/03/22 09:59:55;;;;;;;;;;;;;;;9.30;54.93;99715.38;125301;1099;104072;-76
2021/03/22 10:02:41;;;;;;;;;;;;;;;9.25;54.50;99716.95;125267;1099;104004;-78
2021/03/22 10:05:15;;;;;;;;;;;;;;;9.14;54.06;99719.26;125740;1099;102112;-78
2021/03/22 10:07:50;;;;;;;;;;;;;;;9.09;54.29;99717.38;125927;1099;104402;-78
2021/03/22 10:10:24;;;;;;;;;;;;;;;9.09;54.53;99715.63;125212;1098;103915;-78
2021/03/22 10:12:57;;;;;;;;;;;;;;;9.08;55.50;99719.08;125856;1099;103938;-78
2021/03/22 10:15:33;;;;;;;;;;;;;;;9.04;53.54;99717.23;125858;1099;104003;-78
2021/03/22 10:18:09;;;;;;;;;;;;;;;8.93;54.32;99711.69;125186;1099;103964;-78
2021/03/22 10:20:39;;;;;;;;;;;;;;;8.94;55.00;99717.80;125253;1099;104044;-78
2021/03/22 10:23:17;;;;;;;;;;;;;;;9.04;54.82;99716.33;125968;1099;103957;-77
2021/03/22 10:25:47;;;;;;;;;;;;;;;9.17;54.41;99708.88;125854;1099;103944;-79
2021/03/22 10:28:18;;;;;;;;;;;;;;;9.27;54.94;99704.81;125897;1099;103945;-78
2021/03/22 10:31:11;;;;;;;;;;;;;;;9.45;55.08;99703.55;125943;1099;104005;-78
2021/03/22 10:33:47;;;;;;;;;;;;;;;9.66;54.18;99701.51;125744;1099;103906;-79
2021/03/22 10:36:24;;;;;;;;;;;;;;;9.82;54.47;99704.53;125215;1102;104063;-78
2021/03/22 10:38:54;;;;;;;;;;;;;;;9.88;53.85;99699.45;125849;1099;103954;-80
2021/03/22 10:41:30;;;;;;;;;;;;;;;9.98;53.88;99704.06;125778;1099;104070;-77
2021/03/22 10:44:04;;;;;;;;;;;;;;;10.13;54.04;99694.80;125854;1099;103919;-78
2021/03/22 10:46:34;;;;;;;;;;;;;;;10.33;54.05;99690.07;125762;1099;104143;-79
2021/03/22 10:49:08;;;;;;;;;;;;;;;10.45;53.94;99687.73;126023;1099;104012;-80
2021/03/22 10:51:39;;;;;;;;;;;;;;;10.59;53.57;99699.42;125193;1099;104037;-78
2021/03/22 10:54:12;;;;;;;;;;;;;;;10.58;53.36;99683.65;125963;1099;104369;-79
2021/03/22 10:56:48;;;;;;;;;;;;;;;10.57;53.13;99688.02;125998;1099;103945;-78
2021/03/22 10:59:20;;;;;;;;;;;;;;;10.60;53.25;99682.84;125992;1099;104082;-79
2021/03/22 11:01:54;;;;;;;;;;;;;;;10.57;53.25;99677.52;125396;1099;103941;-78
2021/03/22 11:04:28;;;;;;;;;;;;;;;10.62;53.00;99661.89;125200;1099;103947;-79
2021/03/22 11:07:14;;;;;;;;;;;;;;;10.69;53.01;99666.43;125740;1099;103949;-79
2021/03/22 11:09:52;;;;;;;;;;;;;;;10.76;52.14;99649.94;125758;1099;103948;-80
2021/03/22 11:12:22;;;;;;;;;;;;;;;10.74;52.56;99643.79;125833;1099;103916;-79
2021/03/22 11:14:57;;;;;;;;;;;;;;;10.83;52.29;99647.45;125743;1099;103948;-78
2021/03/22 11:17:28;;;;;;;;;;;;;;;10.91;52.13;99638.02;125106;1099;104040;-79
2021/03/22 11:20:03;;;;;;;;;;;;;;;10.87;52.14;99626.55;125875;1099;103950;-78
2021/03/22 11:22:35;;;;;;;;;;;;;;;11.02;52.06;99632.98;125155;1099;104078;-79
2021/03/22 11:25:25;;;;;;;;;;;;;;;11.13;52.15;99636.70;125090;1102;103916;-78
2021/03/22 11:27:57;;;;;;;;;;;;;;;11.29;51.75;99635.25;125222;1098;106868;-78
2021/03/22 11:30:31;;;;;;;;;;;;;;;11.35;51.23;99630.11;125821;1097;103910;-79
2021/03/22 11:33:06;;;;;;;;;;;;;;;11.43;51.76;99630.26;125094;1099;103989;-79
2021/03/22 11:35:35;;;;;;;;;;;;;;;11.59;51.58;99618.27;125128;1099;104060;-79
2021/03/22 11:38:22;;;;;;;;;;;;;;;11.65;51.63;99615.75;125812;1098;112155;-78
2021/03/22 11:40:51;;;;;;;;;;;;;;;11.56;51.19;99608.61;125161;1099;105195;-79
2021/03/22 11:43:30;;;;;;;;;;;;;;;11.54;51.12;99604.17;125186;1102;104002;-79
2021/03/22 11:46:23;;;;;;;;;;;;;;;11.51;51.00;99599.74;125096;1100;103942;-79
2021/03/22 11:49:02;;;;;;;;;;;;;;;11.56;51.13;99598.11;125737;1099;103921;-79
2021/03/22 11:51:51;;;;;;;;;;;;;;;11.50;50.81;99595.37;125305;1102;104038;-78
2021/03/22 11:54:24;;;;;;;;;;;;;;;11.46;50.93;99606.67;125132;1102;104044;-78
2021/03/22 11:57:03;;;;;;;;;;;;;;;11.33;50.70;99600.32;125090;1102;104323;-78
2021/03/22 11:59:35;;;;;;;;;;;;;;;11.28;50.89;99602.86;125041;1102;104002;-77
2021/03/22 12:02:21;;;;;;;;;;;;;;;11.27;50.93;99603.70;125202;1102;103931;-78
2021/03/22 12:05:00;;;;;;;;;;;;;;;11.20;50.99;99595.69;125147;1102;104146;-78
2021/03/22 12:07:38;;;;;;;;;;;;;;;11.18;51.00;99597.41;125203;1102;104117;-79
2021/03/22 12:10:24;;;;;;;;;;;;;;;11.14;50.77;99597.34;125089;1102;103947;-79
2021/03/22 12:12:52;;;;;;;;;;;;;;;11.01;50.70;99589.20;125107;1102;104076;-78
2021/03/22 12:15:38;;;;;;;;;;;;;;;10.85;50.64;99588.91;125099;1102;104197;-78
2021/03/22 12:18:18;;;;;;;;;;;;;;;10.87;50.50;99594.19;125115;1102;104069;-78
2021/03/22 12:20:47;;;;;;;;;;;;;;;10.87;50.07;99591.56;125001;1102;103958;-77
2021/03/22 12:23:16;;;;;;;;;;;;;;;10.79;50.19;99596.66;125103;1102;103926;-77
2021/03/22 12:25:55;;;;;;;;;;;;;;;10.72;49.97;99587.78;125524;1099;103942;-77
2021/03/22 12:28:30;;;;;;;;;;;;;;;10.66;49.46;99586.74;125801;1099;103923;-78
2021/03/22 12:31:04;;;;;;;;;;;;;;;10.75;49.95;99589.56;125829;1099;103986;-77
2021/03/22 12:33:41;;;;;;;;;;;;;;;10.94;49.84;99582.96;125141;1099;103938;-77
2021/03/22 12:36:21;;;;;;;;;;;;;;;11.16;49.33;99584.25;125097;1102;103951;-78
2021/03/22 12:38:50;;;;;;;;;;;;;;;11.25;49.40;99588.77;125090;1102;104123;-78
2021/03/22 12:41:21;;;;;;;;;;;;;;;11.26;49.41;99587.92;125032;1102;103941;-77
2021/03/22 12:44:02;;;;;;;;;;;;;;;11.24;49.16;99587.02;125049;1099;104174;-79
2021/03/22 12:46:39;;;;;;;;;;;;;;;11.29;49.34;99585.34;125318;1102;103999;-79
2021/03/22 12:49:28;;;;;;;;;;;;;;;11.27;49.40;99592.33;125045;1102;103935;-78
2021/03/22 12:52:03;;;;;;;;;;;;;;;11.01;48.47;99578.70;125005;1102;104089;-77
2021/03/22 12:54:40;;;;;;;;;;;;;;;10.77;48.81;99583.50;125082;1102;104059;-78
2021/03/22 12:57:15;;;;;;;;;;;;;;;10.63;48.63;99582.34;125010;1102;104127;-78
2021/03/22 12:59:46;;;;;;;;;;;;;;;10.33;48.25;99582.55;125222;1102;103983;-78
2021/03/22 13:02:21;;;;;;;;;;;;;;;10.10;48.85;99582.91;125162;1102;104003;-79
2021/03/22 13:04:50;;;;;;;;;;;;;;;10.05;48.47;99588.05;125126;1102;104028;-77
2021/03/22 13:07:19;;;;;;;;;;;;;;;10.09;48.91;99575.89;125142;1102;104044;-78
2021/03/22 13:09:52;;;;;;;;;;;;;;;10.09;48.26;99583.75;125096;1102;103953;-77